Time;durP1;ratioP1;P1;durP2;ratioP2;P2;SDS_P1;SDS_P2;PMS_P1;PMS_P2;Temp;Humidity;BMP_temperature;BMP_pressure;BME280_temperature;BME280_humidity;BME280_pressure;Samples;Min_cycle;Max_cycle;Signal;HPM_P1;HPM_P2
2021/01/17 05:48:25;;;;;;;120.75;44.33;;;;;;;-15.30;64.14;98788.73;1834739;77;25904;-54
2021/01/17 05:50:53;;;;;;;119.60;44.80;;;;;;;-15.39;64.09;98792.68;1793584;80;21146;-53
2021/01/17 05:53:25;;;;;;;116.47;44.30;;;;;;;-15.40;64.16;98798.35;1793512;80;21308;-54
2021/01/17 05:55:52;;;;;;;115.22;43.80;;;;;;;-15.42;64.01;98803.48;1793792;80;21118;-54
2021/01/17 05:58:30;;;;;;;115.72;46.58;;;;;;;-15.54;63.96;98809.25;1773928;80;21281;-54
2021/01/17 06:01:17;;;;;;;114.80;45.12;;;;;;;-15.65;64.04;98812.13;1793530;78;21303;-54
2021/01/17 06:03:53;;;;;;;123.10;47.88;;;;;;;-15.59;64.44;98812.45;1779500;80;21269;-54
2021/01/17 06:06:30;;;;;;;132.40;45.85;;;;;;;-15.50;64.34;98813.79;1777310;80;21131;-56
2021/01/17 06:09:02;;;;;;;130.37;46.08;;;;;;;-15.38;64.41;98819.20;1776192;80;21264;-55
2021/01/17 06:11:31;;;;;;;114.90;44.55;;;;;;;-15.24;64.31;98825.61;1793709;79;21151;-54
2021/01/17 06:14:02;;;;;;;104.47;41.77;;;;;;;-15.12;64.25;98825.34;1793756;78;21284;-55
2021/01/17 06:16:34;;;;;;;112.42;45.20;;;;;;;-15.00;63.99;98819.59;1793699;80;21143;-54
2021/01/17 06:19:09;;;;;;;108.78;42.08;;;;;;;-14.91;63.98;98828.34;1793664;80;21143;-55
2021/01/17 06:21:39;;;;;;;114.95;47.10;;;;;;;-14.83;63.79;98825.44;1793543;80;21115;-54
2021/01/17 06:24:09;;;;;;;105.27;42.53;;;;;;;-14.75;63.59;98829.27;1793660;80;21154;-55
2021/01/17 06:26:40;;;;;;;102.45;42.15;;;;;;;-14.53;63.49;98826.56;1793585;79;21131;-55
2021/01/17 06:29:12;;;;;;;110.92;44.45;;;;;;;-13.81;63.58;98826.20;1793756;79;21162;-55
2021/01/17 06:31:40;;;;;;;108.55;44.55;;;;;;;-12.93;62.98;98833.34;1793663;78;21268;-57
2021/01/17 06:34:14;;;;;;;120.77;47.53;;;;;;;-11.93;61.98;98823.50;1793533;80;21119;-55
2021/01/17 06:36:48;;;;;;;122.78;50.08;;;;;;;-10.98;60.80;98827.03;1793638;80;21123;-56
2021/01/17 06:39:26;;;;;;;123.18;49.45;;;;;;;-10.00;58.93;98830.32;1793530;79;21154;-57
2021/01/17 06:41:57;;;;;;;124.65;53.00;;;;;;;-9.12;56.68;98841.28;1793689;80;21293;-53
2021/01/17 06:44:33;;;;;;;136.88;56.65;;;;;;;-8.39;55.42;98834.06;1793720;80;21591;-57
2021/01/17 06:47:03;;;;;;;142.98;59.98;;;;;;;-7.60;53.65;98839.59;1789529;80;21175;-59
2021/01/17 06:49:35;;;;;;;131.70;57.55;;;;;;;-6.98;51.66;98836.47;1779926;81;21131;-55
2021/01/17 06:52:04;;;;;;;160.20;65.10;;;;;;;-6.32;50.29;98831.81;1780086;79;21277;-55
2021/01/17 06:54:42;;;;;;;163.07;66.70;;;;;;;-5.62;48.75;98839.45;1780159;81;21155;-56
2021/01/17 06:57:11;;;;;;;156.43;66.10;;;;;;;-5.00;47.18;98840.88;1780079;79;21142;-56
2021/01/17 06:59:45;;;;;;;157.40;67.25;;;;;;;-4.38;45.36;98839.64;1779363;79;21163;-57
2021/01/17 07:02:27;;;;;;;149.80;63.35;;;;;;;-3.92;44.32;98842.69;1779416;80;21123;-58
2021/01/17 07:05:33;;;;;;;146.45;61.85;;;;;;;-3.44;43.21;98841.59;1779475;81;21132;-57
2021/01/17 07:08:38;;;;;;;131.57;57.48;;;;;;;-2.90;42.07;98844.95;1779561;79;21546;-58
2021/01/17 07:11:20;;;;;;;122.02;54.65;;;;;;;-2.33;40.38;98844.61;1779329;81;21445;-56
2021/01/17 07:13:50;;;;;;;119.13;55.85;;;;;;;-1.55;40.03;98844.09;1779016;80;21116;-54
2021/01/17 07:16:26;;;;;;;114.72;54.30;;;;;;;-0.79;38.87;98839.83;1779558;79;21147;-59
2021/01/17 07:19:05;;;;;;;108.00;54.25;;;;;;;-0.08;37.34;98835.87;1834789;77;22140;-56
2021/01/17 07:21:39;;;;;;;99.72;49.98;;;;;;;0.23;36.60;98841.22;1793705;79;21146;-59
2021/01/17 07:24:09;;;;;;;102.85;52.55;;;;;;;0.53;35.49;98839.31;1793817;79;21119;-57
2021/01/17 07:27:03;;;;;;;99.95;50.78;;;;;;;0.65;35.14;98838.64;1793492;80;21163;-56
2021/01/17 07:29:36;;;;;;;103.32;53.68;;;;;;;0.68;34.76;98831.56;1793377;80;21573;-59
2021/01/17 07:32:25;;;;;;;98.90;51.00;;;;;;;1.02;34.52;98831.09;1793831;80;21510;-56
2021/01/17 07:34:53;;;;;;;91.55;48.40;;;;;;;1.45;33.77;98826.69;1752137;81;21341;-57
2021/01/17 07:37:25;;;;;;;101.53;53.30;;;;;;;1.77;33.13;98831.45;1780851;80;21150;-57
2021/01/17 07:39:57;;;;;;;106.70;56.30;;;;;;;1.70;32.36;98835.37;1793831;80;21311;-58
2021/01/17 07:42:25;;;;;;;110.63;58.10;;;;;;;1.61;32.16;98832.45;1793862;78;21277;-55
2021/01/17 07:44:55;;;;;;;111.37;58.85;;;;;;;1.77;32.30;98834.85;1793547;80;21696;-60
2021/01/17 07:47:29;;;;;;;97.80;52.67;;;;;;;2.16;31.69;98833.53;1793695;78;21284;-57
2021/01/17 07:49:57;;;;;;;90.80;50.03;;;;;;;2.45;31.46;98830.07;1793668;80;21280;-57
2021/01/17 07:52:26;;;;;;;107.37;52.50;;;;;;;2.77;31.03;98830.97;1793526;80;21142;-60
2021/01/17 07:54:55;;;;;;;109.20;56.42;;;;;;;2.82;30.65;98828.19;1793694;80;21115;-55
2021/01/17 07:57:24;;;;;;;114.40;59.30;;;;;;;2.88;30.19;98828.83;1793664;80;21277;-57
2021/01/17 07:59:52;;;;;;;108.25;57.03;;;;;;;2.85;30.15;98826.55;1793472;79;21155;-59
2021/01/17 08:02:25;;;;;;;97.65;53.58;;;;;;;3.05;30.46;98830.73;1793500;78;21656;-58
2021/01/17 08:04:53;;;;;;;96.82;54.25;;;;;;;3.35;30.31;98828.48;1793567;79;21174;-58
2021/01/17 08:07:33;;;;;;;83.55;45.95;;;;;;;3.64;29.61;98832.12;1793705;80;21288;-57
2021/01/17 08:10:04;;;;;;;81.70;45.17;;;;;;;3.26;29.11;98826.47;1793245;79;21166;-59
2021/01/17 08:12:40;;;;;;;85.05;46.85;;;;;;;2.98;29.76;98828.79;1793472;80;21210;-58
2021/01/17 08:15:18;;;;;;;90.25;50.23;;;;;;;3.13;29.63;98829.75;1793494;80;21308;-55
2021/01/17 08:17:46;;;;;;;88.50;50.50;;;;;;;3.18;29.62;98832.97;1788905;80;21293;-59
2021/01/17 08:20:25;;;;;;;97.95;53.92;;;;;;;2.88;29.25;98829.23;1774017;80;21166;-58
2021/01/17 08:23:05;;;;;;;93.92;49.98;;;;;;;2.55;29.92;98833.45;1721694;81;21641;-58
2021/01/17 08:25:55;;;;;;;94.22;51.23;;;;;;;2.48;29.85;98836.55;1779021;80;21352;-56
2021/01/17 08:28:37;;;;;;;89.58;48.83;;;;;;;2.24;30.22;98838.56;1770195;81;21196;-58
2021/01/17 08:31:36;;;;;;;92.65;50.55;;;;;;;1.78;30.40;98836.61;1765380;81;21289;-57
2021/01/17 08:34:11;;;;;;;73.72;40.98;;;;;;;1.77;31.17;98839.94;1762472;79;21358;-58
2021/01/17 08:36:40;;;;;;;57.78;31.07;;;;;;;1.77;30.80;98836.13;1762184;80;21156;-59
2021/01/17 08:39:09;;;;;;;65.40;36.03;;;;;;;1.42;30.96;98834.56;1764452;81;21561;-60
2021/01/17 08:41:39;;;;;;;64.10;35.25;;;;;;;0.91;31.19;98830.97;1761365;79;21150;-59
2021/01/17 08:44:09;;;;;;;74.67;38.43;;;;;;;0.36;31.45;98834.70;1720247;81;22186;-58
2021/01/17 08:46:40;;;;;;;70.78;35.73;;;;;;;-0.63;32.16;98827.58;1753142;81;21542;-59
2021/01/17 08:49:09;;;;;;;65.73;34.37;;;;;;;-1.52;33.78;98838.33;1763561;81;21180;-58
2021/01/17 08:51:37;;;;;;;57.55;32.67;;;;;;;-1.82;34.71;98834.53;1762414;81;21135;-58
2021/01/17 08:54:25;;;;;;;42.75;24.52;;;;;;;-2.01;34.92;98833.48;1762810;81;21197;-56
2021/01/17 08:56:53;;;;;;;43.80;23.75;;;;;;;-2.47;35.32;98835.83;1766628;79;21274;-57
2021/01/17 08:59:33;;;;;;;44.50;23.07;;;;;;;-3.11;35.90;98840.31;1763760;81;21123;-57
2021/01/17 09:02:02;;;;;;;44.23;23.05;;;;;;;-4.05;37.06;98834.71;1769643;79;21276;-57
2021/01/17 09:04:32;;;;;;;45.92;21.82;;;;;;;-4.59;38.25;98827.35;1779819;80;21131;-58
2021/01/17 09:07:00;;;;;;;35.40;17.12;;;;;;;-4.67;38.95;98825.09;1779284;79;21285;-58
2021/01/17 09:09:28;;;;;;;47.10;22.30;;;;;;;-5.18;39.23;98835.44;1779491;79;21143;-58
2021/01/17 09:12:09;;;;;;;54.15;26.23;;;;;;;-5.74;40.24;98820.97;1779340;81;21197;-57
2021/01/17 09:14:37;;;;;;;45.92;21.20;;;;;;;-6.13;41.13;98817.31;1778088;81;21349;-58
2021/01/17 09:17:12;;;;;;;42.23;19.82;;;;;;;-6.41;42.07;98817.81;1778410;79;21402;-54
2021/01/17 09:19:39;;;;;;;43.52;19.87;;;;;;;-6.81;42.76;98823.59;1792907;79;21360;-56
2021/01/17 09:22:08;;;;;;;45.80;21.55;;;;;;;-7.12;43.56;98817.87;1793085;78;21139;-57
2021/01/17 09:24:38;;;;;;;43.60;21.42;;;;;;;-7.49;44.62;98815.37;1793558;80;21530;-55
2021/01/17 09:27:10;;;;;;;47.90;22.37;;;;;;;-7.93;45.64;98821.48;1793503;80;21688;-56
2021/01/17 09:29:41;;;;;;;44.77;21.20;;;;;;;-8.27;46.93;98815.37;1793097;80;21134;-55
2021/01/17 09:32:15;;;;;;;39.85;20.65;;;;;;;-8.09;47.54;98815.25;1793197;80;21225;-59
2021/01/17 09:34:49;;;;;;;47.78;21.48;;;;;;;-7.86;47.61;98810.84;1793335;80;21289;-56
2021/01/17 09:37:19;;;;;;;46.18;21.00;;;;;;;-7.56;47.69;98810.63;1793055;80;21298;-57
2021/01/17 09:39:50;;;;;;;38.05;16.70;;;;;;;-7.43;47.14;98805.81;1793081;79;21273;-56
2021/01/17 09:42:23;;;;;;;41.30;19.07;;;;;;;-7.75;47.10;98813.31;1793235;79;21107;-54
2021/01/17 09:45:02;;;;;;;38.65;19.40;;;;;;;-8.34;48.27;98801.50;1793256;79;21142;-58
2021/01/17 09:47:30;;;;;;;40.70;18.95;;;;;;;-8.61;49.35;98802.25;1793182;79;21151;-58
2021/01/17 09:50:10;;;;;;;37.25;18.85;;;;;;;-8.37;49.81;98794.97;1793347;79;21137;-58
2021/01/17 09:52:40;;;;;;;31.73;14.87;;;;;;;-8.29;49.39;98796.48;1793140;79;21183;-57
2021/01/17 09:55:10;;;;;;;39.78;16.05;;;;;;;-8.58;49.24;98792.49;1793210;80;21581;-55
2021/01/17 09:57:40;;;;;;;38.05;16.48;;;;;;;-9.01;49.62;98801.42;1793288;79;21119;-56
2021/01/17 10:00:20;;;;;;;33.53;15.00;;;;;;;-9.36;50.50;98803.47;1793321;79;21111;-55
2021/01/17 10:02:49;;;;;;;29.92;14.68;;;;;;;-9.75;51.32;98805.89;1793254;78;21739;-56
2021/01/17 10:05:28;;;;;;;38.20;18.45;;;;;;;-10.22;52.11;98797.63;1793129;79;21139;-56
2021/01/17 10:08:04;;;;;;;42.27;18.75;;;;;;;-10.53;53.05;98800.79;1789406;78;21159;-57
2021/01/17 10:10:34;;;;;;;44.88;20.80;;;;;;;-10.20;53.81;98801.10;1777391;79;21138;-55
2021/01/17 10:13:03;;;;;;;40.12;18.40;;;;;;;-9.58;53.52;98797.37;1793355;79;21577;-56
2021/01/17 10:15:34;;;;;;;48.42;21.02;;;;;;;-8.94;52.61;98799.45;1793438;78;21150;-56
2021/01/17 10:18:03;;;;;;;49.25;21.17;;;;;;;-8.42;51.99;98777.48;1790382;79;21309;-57
2021/01/17 10:20:39;;;;;;;51.98;21.80;;;;;;;-7.99;50.79;98785.92;1779190;81;21139;-55
2021/01/17 10:23:13;;;;;;;50.80;23.92;;;;;;;-8.01;49.87;98777.06;1779218;81;21154;-59
2021/01/17 10:25:43;;;;;;;66.17;27.70;;;;;;;-8.16;49.45;98774.20;1779349;79;21140;-56
2021/01/17 10:28:11;;;;;;;56.40;26.68;;;;;;;-8.40;49.69;98770.98;1794043;80;21151;-57
2021/01/17 10:30:41;;;;;;;48.70;23.77;;;;;;;-8.64;50.56;98774.48;1779279;81;21167;-56
2021/01/17 10:33:15;;;;;;;54.93;23.92;;;;;;;-8.86;50.90;98775.97;1761056;81;21513;-58
2021/01/17 10:35:48;;;;;;;51.48;23.47;;;;;;;-9.01;51.06;98772.67;1718932;79;21187;-57
2021/01/17 10:38:19;;;;;;;53.90;23.60;;;;;;;-9.11;51.58;98770.53;1779195;80;21277;-57
2021/01/17 10:40:48;;;;;;;50.28;24.12;;;;;;;-9.03;51.89;98770.80;1779513;81;21170;-55
2021/01/17 10:43:36;;;;;;;59.18;24.92;;;;;;;-8.77;51.77;98765.48;1779197;81;21143;-57
2021/01/17 10:46:22;;;;;;;50.73;22.60;;;;;;;-8.49;51.38;98760.25;1779569;79;21672;-57
2021/01/17 10:49:15;;;;;;;47.98;24.32;;;;;;;-8.07;51.10;98769.91;1779386;80;21151;-56
2021/01/17 10:51:53;;;;;;;38.70;18.40;;;;;;;-7.89;49.81;98771.75;1779201;79;21151;-55
2021/01/17 10:54:30;;;;;;;40.38;21.73;;;;;;;-7.70;50.07;98771.59;1779158;81;21202;-57
2021/01/17 10:57:04;;;;;;;52.17;23.27;;;;;;;-7.57;49.77;98765.03;1779435;81;21139;-57
2021/01/17 10:59:34;;;;;;;51.20;23.18;;;;;;;-7.38;49.12;98769.45;1779195;79;21281;-59
2021/01/17 11:02:02;;;;;;;47.73;21.82;;;;;;;-7.32;48.60;98765.31;1773892;81;21183;-57
2021/01/17 11:04:41;;;;;;;48.55;22.50;;;;;;;-7.50;49.20;98771.03;1764250;79;21565;-56
2021/01/17 11:07:09;;;;;;;56.28;25.05;;;;;;;-7.33;49.72;98769.42;1779392;80;21138;-54
2021/01/17 11:09:37;;;;;;;51.37;25.32;;;;;;;-7.34;49.03;98770.19;1779212;80;21143;-55
2021/01/17 11:12:05;;;;;;;57.43;25.45;;;;;;;-7.29;49.51;98762.65;1779348;79;21281;-56
2021/01/17 11:14:33;;;;;;;52.43;25.08;;;;;;;-7.00;49.66;98758.59;1779456;81;21162;-58
2021/01/17 11:17:06;;;;;;;45.73;23.05;;;;;;;-6.69;49.52;98759.67;1779180;81;21139;-58
2021/01/17 11:19:40;;;;;;;48.40;22.75;;;;;;;-6.28;48.92;98757.19;1778875;80;21175;-56
2021/01/17 11:22:09;;;;;;;50.48;22.10;;;;;;;-5.99;48.25;98754.29;1779442;80;21693;-57
2021/01/17 11:24:40;;;;;;;62.50;29.52;;;;;;;-5.63;48.08;98755.12;1779181;79;21132;-58
2021/01/17 11:27:16;;;;;;;67.35;32.48;;;;;;;-5.34;46.74;98758.41;1779295;80;21140;-55
2021/01/17 11:29:44;;;;;;;58.83;30.00;;;;;;;-5.45;45.89;98761.05;1779171;81;21151;-55
2021/01/17 11:32:13;;;;;;;60.73;29.18;;;;;;;-5.59;46.08;98760.88;1779348;81;21178;-55
2021/01/17 11:34:42;;;;;;;63.30;28.77;;;;;;;-5.59;46.70;98758.36;1779177;81;21139;-55
2021/01/17 11:37:10;;;;;;;52.33;25.68;;;;;;;-5.45;45.66;98752.63;1779138;81;21131;-56
2021/01/17 11:39:37;;;;;;;56.75;23.95;;;;;;;-5.77;45.50;98747.88;1779378;81;21272;-58
2021/01/17 11:42:17;;;;;;;54.83;27.48;;;;;;;-6.15;45.76;98748.55;1779261;81;21294;-56
2021/01/17 11:44:45;;;;;;;48.68;25.12;;;;;;;-6.75;46.22;98750.80;1778988;79;21159;-55
2021/01/17 11:47:19;;;;;;;54.60;26.00;;;;;;;-7.15;47.18;98745.27;1779293;79;21139;-55
2021/01/17 11:49:47;;;;;;;47.40;23.57;;;;;;;-7.32;47.56;98751.14;1779179;79;21111;-59
2021/01/17 11:52:15;;;;;;;50.20;22.15;;;;;;;-7.70;48.13;98741.91;1779525;79;21147;-56
2021/01/17 11:54:43;;;;;;;45.23;20.80;;;;;;;-7.92;48.89;98739.34;1779128;81;21629;-55
2021/01/17 11:57:11;;;;;;;47.67;21.35;;;;;;;-7.88;49.05;98734.70;1779111;79;21605;-55
2021/01/17 11:59:39;;;;;;;39.88;19.45;;;;;;;-7.89;49.00;98739.19;1779362;81;21162;-54
2021/01/17 12:02:23;;;;;;;40.90;19.32;;;;;;;-7.96;49.14;98743.59;1779364;79;21278;-58
2021/01/17 12:04:58;;;;;;;37.40;17.87;;;;;;;-7.99;49.34;98745.47;1751773;79;21170;-59
2021/01/17 12:07:26;;;;;;;34.40;15.88;;;;;;;-8.24;49.56;98752.69;1765735;81;21163;-58
2021/01/17 12:10:11;;;;;;;37.65;16.87;;;;;;;-8.35;49.91;98740.92;1779555;81;21166;-55
2021/01/17 12:12:40;;;;;;;28.73;13.10;;;;;;;-8.47;49.84;98738.70;1779532;79;21257;-58
2021/01/17 12:15:10;;;;;;;39.10;16.60;;;;;;;-8.32;49.78;98752.42;1779589;79;21147;-58
2021/01/17 12:17:38;;;;;;;43.08;19.25;;;;;;;-8.40;49.98;98748.08;1779545;81;21558;-56
2021/01/17 12:20:09;;;;;;;39.50;17.65;;;;;;;-8.35;50.03;98752.18;1789574;79;21158;-58
2021/01/17 12:22:38;;;;;;;39.18;16.80;;;;;;;-8.29;49.94;98758.95;1793207;79;21277;-57
2021/01/17 12:25:08;;;;;;;36.23;16.87;;;;;;;-8.00;50.11;98762.91;1793262;79;21307;-57
2021/01/17 12:27:35;;;;;;;41.10;19.62;;;;;;;-7.64;49.68;98762.41;1793371;79;21170;-59
2021/01/17 12:30:06;;;;;;;34.75;17.23;;;;;;;-7.44;49.18;98759.83;1793345;79;21173;-58
2021/01/17 12:32:33;;;;;;;40.08;17.25;;;;;;;-7.35;48.09;98763.80;1793189;79;21134;-58
2021/01/17 12:35:02;;;;;;;36.15;18.27;;;;;;;-7.43;48.21;98764.45;1793436;79;21126;-56
2021/01/17 12:37:30;;;;;;;36.75;18.12;;;;;;;-7.48;47.70;98769.49;1793134;80;21138;-58
2021/01/17 12:39:58;;;;;;;39.45;17.55;;;;;;;-7.65;47.81;98776.58;1793281;80;21273;-59
2021/01/17 12:42:26;;;;;;;39.25;18.42;;;;;;;-7.78;48.33;98773.87;1793521;78;21141;-58
2021/01/17 12:44:55;;;;;;;42.35;19.37;;;;;;;-7.87;48.42;98769.38;1793173;80;21273;-60
2021/01/17 12:47:22;;;;;;;50.12;18.12;;;;;;;-8.07;48.80;98769.91;1793402;80;21280;-55
2021/01/17 12:49:52;;;;;;;36.93;17.67;;;;;;;-8.04;48.84;98770.91;1789957;79;21608;-56
2021/01/17 12:52:21;;;;;;;39.18;17.87;;;;;;;-7.97;48.50;98769.02;1775695;80;21353;-58
2021/01/17 12:54:48;;;;;;;43.68;19.37;;;;;;;-8.08;48.64;98775.68;1789422;80;21137;-54
2021/01/17 12:57:16;;;;;;;45.50;19.67;;;;;;;-8.15;49.23;98769.67;1793196;79;21127;-54
2021/01/17 12:59:45;;;;;;;46.18;22.32;;;;;;;-8.03;49.12;98778.94;1793117;80;21565;-56
2021/01/17 13:02:12;;;;;;;51.00;22.73;;;;;;;-7.95;48.64;98778.78;1793126;80;21154;-55
2021/01/17 13:04:40;;;;;;;50.40;22.32;;;;;;;-7.99;48.61;98783.03;1776050;80;21288;-55
2021/01/17 13:07:08;;;;;;;55.12;24.55;;;;;;;-8.09;48.90;98786.46;1793186;80;21585;-54
2021/01/17 13:09:36;;;;;;;52.58;22.75;;;;;;;-8.17;48.96;98779.06;1793541;80;21280;-56
2021/01/17 13:12:06;;;;;;;50.80;21.15;;;;;;;-8.26;49.19;98779.21;1793126;79;21289;-55
2021/01/17 13:14:33;;;;;;;41.53;20.30;;;;;;;-8.46;49.63;98772.62;1793388;80;21289;-59
2021/01/17 13:17:01;;;;;;;53.95;22.70;;;;;;;-8.53;50.00;98785.38;1793174;80;21285;-56
2021/01/17 13:19:30;;;;;;;43.92;20.90;;;;;;;-8.57;50.06;98779.63;1787964;80;21281;-56
2021/01/17 13:21:59;;;;;;;43.33;21.05;;;;;;;-8.66;50.11;98785.12;1779272;80;21139;-55
2021/01/17 13:24:27;;;;;;;39.08;18.67;;;;;;;-9.02;50.81;98785.94;1779354;81;21289;-55
2021/01/17 13:26:54;;;;;;;46.60;20.70;;;;;;;-9.12;51.42;98784.66;1779405;80;21147;-57
2021/01/17 13:29:22;;;;;;;52.03;21.87;;;;;;;-9.23;51.75;98792.52;1779380;81;21142;-55
2021/01/17 13:31:50;;;;;;;47.95;20.80;;;;;;;-9.26;52.16;98786.02;1775258;79;21241;-57
2021/01/17 13:34:19;;;;;;;49.88;21.80;;;;;;;-9.30;52.34;98786.48;1756783;81;21273;-57
2021/01/17 13:36:51;;;;;;;54.63;22.35;;;;;;;-9.42;52.64;98783.81;1761924;79;21187;-56
2021/01/17 13:39:19;;;;;;;42.23;19.05;;;;;;;-9.63;53.16;98779.48;1762588;81;21166;-54
2021/01/17 13:41:54;;;;;;;49.15;21.57;;;;;;;-9.84;53.58;98776.02;1761830;80;21262;-56
2021/01/17 13:44:22;;;;;;;45.35;21.05;;;;;;;-9.93;53.93;98779.83;1761769;81;21151;-57
2021/01/17 13:46:51;;;;;;;48.68;20.27;;;;;;;-9.94;54.10;98779.33;1761607;81;21298;-59
2021/01/17 13:49:20;;;;;;;43.58;20.30;;;;;;;-9.96;54.27;98784.55;1747607;81;21446;-57
2021/01/17 13:51:48;;;;;;;44.67;19.27;;;;;;;-9.98;54.48;98781.42;1762037;81;21148;-56
2021/01/17 13:54:15;;;;;;;49.23;19.45;;;;;;;-9.94;54.48;98781.83;1762888;79;21127;-55
2021/01/17 13:56:43;;;;;;;50.40;19.87;;;;;;;-9.96;54.79;98779.56;1764988;81;21115;-57
2021/01/17 13:59:13;;;;;;;45.83;21.40;;;;;;;-9.97;55.10;98769.44;1762871;81;21276;-58
2021/01/17 14:01:41;;;;;;;42.95;20.20;;;;;;;-10.07;55.56;98770.28;1762231;81;21150;-55
2021/01/17 14:04:08;;;;;;;51.48;22.37;;;;;;;-10.17;56.16;98766.47;1761957;81;21089;-57
2021/01/17 14:06:38;;;;;;;46.95;19.95;;;;;;;-10.36;56.82;98774.84;1762892;81;21138;-59
2021/01/17 14:09:07;;;;;;;44.73;20.65;;;;;;;-10.55;57.73;98772.72;1760949;81;22000;-56
2021/01/17 14:11:35;;;;;;;51.30;25.50;;;;;;;-10.76;58.17;98775.38;1764116;81;21582;-55
2021/01/17 14:14:03;;;;;;;45.83;22.85;;;;;;;-10.94;58.58;98779.58;1748436;81;21129;-58
2021/01/17 14:16:45;;;;;;;42.93;18.60;;;;;;;-10.98;59.23;98783.80;1752741;81;21147;-56
2021/01/17 14:19:13;;;;;;;;;;;;;;;-11.02;59.71;98784.23;1771563;80;21233;-58
2021/01/17 14:21:45;;;;;;;51.28;19.27;;;;;;;-11.17;60.07;98782.13;1764721;81;20154;-56
2021/01/17 14:24:18;;;;;;;39.63;17.23;;;;;;;-11.31;60.52;98783.70;1764904;81;21458;-58
2021/01/17 14:26:44;;;;;;;47.03;20.90;;;;;;;-11.41;61.07;98791.05;1761614;81;21322;-53
2021/01/17 14:29:13;;;;;;;45.67;17.15;;;;;;;-11.54;61.69;98789.41;1779125;81;21158;-57
2021/01/17 14:31:48;;;;;;;37.95;16.67;;;;;;;-11.66;62.07;98799.95;1779201;80;21293;-56
2021/01/17 14:34:18;;;;;;;42.67;17.27;;;;;;;-11.78;62.65;98801.28;1779069;80;21222;-57
2021/01/17 14:36:49;;;;;;;39.90;17.48;;;;;;;-11.85;62.82;98798.98;1767467;81;21211;-58
2021/01/17 14:39:25;;;;;;;37.93;16.73;;;;;;;-11.89;63.12;98795.70;1748488;81;21382;-56
2021/01/17 14:41:59;;;;;;;39.20;18.55;;;;;;;-11.90;63.46;98793.97;1748458;82;21303;-59
2021/01/17 15:10:27;;;;;;;41.58;17.65;;;;;;;-12.48;64.55;98798.83;1691843;83;21121;-47
2021/01/17 15:12:55;;;;;;;39.27;17.50;;;;;;;-12.47;64.85;98801.81;1667123;86;21203;-50
2021/01/17 15:15:23;;;;;;;36.75;18.02;;;;;;;-12.41;65.02;98810.59;1667079;86;21203;-65
2021/01/17 15:17:50;;;;;;;41.55;18.07;;;;;;;-12.41;65.12;98809.36;1667268;85;21184;-51
2021/01/17 15:20:21;;;;;;;44.18;18.85;;;;;;;-12.40;65.12;98803.67;1667028;85;21307;-52
2021/01/17 15:22:48;;;;;;;41.10;15.48;;;;;;;-12.42;65.09;98806.38;1650260;86;21304;-50
2021/01/17 15:25:16;;;;;;;43.40;18.15;;;;;;;-12.47;65.24;98800.58;1656710;85;21198;-51
2021/01/17 15:27:46;;;;;;;35.38;15.68;;;;;;;-12.53;65.48;98802.48;1658090;85;21660;-51
2021/01/17 15:30:15;;;;;;;52.62;19.98;;;;;;;-12.66;65.89;98807.36;1718518;82;21150;-51
2021/01/17 15:32:43;;;;;;;37.13;17.62;;;;;;;-12.78;66.30;98808.27;1740329;82;21194;-51
2021/01/17 15:35:14;;;;;;;60.80;23.30;;;;;;;-12.82;66.77;98813.66;1745468;82;21215;-50
2021/01/17 15:37:42;;;;;;;54.85;22.00;;;;;;;-12.91;67.07;98814.51;1744995;82;21206;-51
2021/01/17 15:40:11;;;;;;;57.15;23.30;;;;;;;-12.97;67.50;98818.02;1692055;83;21166;-51
2021/01/17 15:42:40;;;;;;;87.10;31.17;;;;;;;-12.97;67.87;98810.56;1692081;83;21648;-51
2021/01/17 15:45:09;;;;;;;72.25;26.95;;;;;;;-12.95;67.79;98815.29;1721815;82;21154;-51
2021/01/17 15:47:37;;;;;;;106.80;33.00;;;;;;;-12.96;67.93;98804.48;1722825;82;21138;-50
2021/01/17 15:50:07;;;;;;;51.00;19.15;;;;;;;-13.11;68.14;98807.94;1720824;82;21300;-50
2021/01/17 15:52:34;;;;;;;94.10;32.40;;;;;;;-13.20;68.61;98817.84;1721012;83;21702;-51
2021/01/17 15:55:02;;;;;;;63.98;26.25;;;;;;;-13.19;68.95;98810.02;1720840;83;21187;-50
2021/01/17 15:57:30;;;;;;;60.38;25.43;;;;;;;-13.18;68.89;98809.28;1720685;83;21228;-51
2021/01/17 15:59:58;;;;;;;68.05;20.45;;;;;;;-13.23;69.22;98806.70;1743871;82;21217;-51
2021/01/17 16:02:25;;;;;;;55.50;21.40;;;;;;;-13.22;69.10;98802.28;1745639;82;21169;-51
2021/01/17 16:04:53;;;;;;;46.00;20.72;;;;;;;-13.28;69.20;98807.88;1690531;82;21779;-51
2021/01/17 16:07:20;;;;;;;46.80;20.43;;;;;;;-13.26;69.26;98805.20;1680906;82;21147;-50
2021/01/17 16:09:48;;;;;;;51.10;20.60;;;;;;;-13.23;69.20;98806.70;1684785;81;22378;-51
2021/01/17 16:12:16;;;;;;;48.33;21.15;;;;;;;-13.25;69.32;98805.67;1718832;81;21306;-50
2021/01/17 16:14:46;;;;;;;47.98;19.40;;;;;;;-13.22;69.37;98808.11;1732651;81;21333;-50
2021/01/17 16:17:14;;;;;;;45.23;20.32;;;;;;;-13.20;69.22;98809.16;1736065;81;21188;-50
2021/01/17 16:19:41;;;;;;;48.80;19.40;;;;;;;-13.19;69.28;98812.14;1735859;81;21141;-50
2021/01/17 16:22:09;;;;;;;39.73;19.07;;;;;;;-13.19;69.27;98805.93;1736132;83;21558;-50
2021/01/17 16:24:37;;;;;;;52.60;21.45;;;;;;;-13.22;69.31;98804.76;1736349;81;21163;-50
2021/01/17 16:27:08;;;;;;;45.78;20.43;;;;;;;-13.28;69.30;98812.85;1736246;81;21289;-50
2021/01/17 16:29:36;;;;;;;48.55;20.45;;;;;;;-13.32;69.58;98817.02;1735822;80;21186;-50
2021/01/17 16:32:05;;;;;;;44.90;21.48;;;;;;;-13.31;69.53;98811.31;1690302;81;21614;-51
2021/01/17 16:34:33;;;;;;;47.90;20.15;;;;;;;-13.32;69.74;98814.16;1718142;81;21579;-50
2021/01/17 16:37:04;;;;;;;56.68;22.10;;;;;;;-13.30;69.72;98810.23;1736215;81;21168;-50
2021/01/17 16:39:33;;;;;;;44.20;18.92;;;;;;;-13.32;69.76;98808.33;1736294;81;21176;-50
2021/01/17 16:42:04;;;;;;;51.75;23.25;;;;;;;-13.40;69.88;98807.19;1736388;82;21247;-51
2021/01/17 16:44:32;;;;;;;54.27;20.27;;;;;;;-13.45;69.93;98805.84;1736243;81;21729;-51
2021/01/17 16:47:03;;;;;;;45.83;18.70;;;;;;;-13.48;70.20;98805.88;1736232;81;21205;-50
2021/01/17 16:49:34;;;;;;;45.10;19.45;;;;;;;-13.54;70.42;98801.55;1735593;81;21615;-50
2021/01/17 16:52:03;;;;;;;114.05;37.30;;;;;;;-13.62;70.66;98798.30;1736359;81;21211;-51
2021/01/17 16:54:31;;;;;;;64.55;22.07;;;;;;;-13.75;70.93;98794.94;1736590;81;21298;-50
2021/01/17 16:56:59;;;;;;;54.95;19.23;;;;;;;-13.93;71.48;98788.98;1736216;83;21314;-50
2021/01/17 16:59:27;;;;;;;60.35;23.05;;;;;;;-13.98;71.80;98806.60;1736226;81;21346;-50
2021/01/17 17:01:57;;;;;;;79.25;25.10;;;;;;;-14.01;71.86;98814.23;1731493;83;21578;-50
2021/01/17 17:04:25;;;;;;;52.70;20.00;;;;;;;-14.03;72.20;98806.13;1736704;81;21278;-50
2021/01/17 17:07:03;;;;;;;57.62;23.85;;;;;;;-14.02;72.41;98804.15;1736931;81;21365;-50
2021/01/17 17:09:39;;;;;;;51.10;19.67;;;;;;;-14.07;72.46;98792.88;1734332;81;21555;-50
2021/01/17 17:12:09;;;;;;;45.03;19.25;;;;;;;-14.19;72.79;98800.29;1731663;83;21290;-50
2021/01/17 17:14:37;;;;;;;56.98;21.97;;;;;;;-14.30;73.08;98807.86;1731560;81;21586;-51
2021/01/17 17:17:06;;;;;;;45.63;18.23;;;;;;;-14.31;73.50;98810.70;1731789;81;21156;-51
2021/01/17 17:19:34;;;;;;;48.50;17.07;;;;;;;-14.32;73.34;98809.30;1731757;83;21523;-50
2021/01/17 17:22:05;;;;;;;50.90;20.25;;;;;;;-14.35;73.55;98819.77;1731746;81;21289;-50
2021/01/17 17:24:32;;;;;;;45.63;20.55;;;;;;;-14.29;73.44;98817.08;1727571;81;21644;-50
2021/01/17 17:27:00;;;;;;;42.70;18.12;;;;;;;-14.24;73.39;98824.26;1730175;81;21287;-50
2021/01/17 17:29:28;;;;;;;37.03;14.95;;;;;;;-14.16;73.26;98817.98;1723684;81;21328;-50
2021/01/17 17:31:56;;;;;;;37.42;13.93;;;;;;;-14.10;72.95;98825.67;1722414;82;21189;-53
2021/01/17 17:34:25;;;;;;;43.42;16.77;;;;;;;-14.10;72.62;98828.52;1726326;81;21141;-50
2021/01/17 17:36:52;;;;;;;45.70;17.00;;;;;;;-14.14;72.37;98826.43;1721848;82;21165;-50
2021/01/17 17:39:20;;;;;;;39.35;16.45;;;;;;;-14.23;72.37;98840.88;1726423;81;21197;-51
2021/01/17 17:41:50;;;;;;;42.43;17.85;;;;;;;-14.27;72.25;98837.58;1722333;83;21137;-50
2021/01/17 17:44:17;;;;;;;45.38;17.75;;;;;;;-14.28;72.30;98842.00;1725732;81;21150;-50
2021/01/17 17:46:48;;;;;;;36.10;15.60;;;;;;;-14.23;72.27;98854.88;1718933;83;21709;-51